createdAt,value
2019-02-10T00:01:53.773Z,98688.75
2019-02-10T00:04:25.030Z,98699.28
2019-02-10T00:06:58.826Z,98695.23
2019-02-10T00:09:34.432Z,98690.67
2019-02-10T00:12:08.157Z,98686.89
2019-02-10T00:14:40.360Z,98683.22
2019-02-10T00:17:13.680Z,98684.38
2019-02-10T00:19:46.852Z,98683.66
2019-02-10T00:22:20.741Z,98690.25
2019-02-10T00:24:53.946Z,98702.98
2019-02-10T00:27:27.941Z,98698.10
2019-02-10T00:29:59.206Z,98699.48
2019-02-10T00:32:35.511Z,98702.50
2019-02-10T00:35:06.966Z,98690.75
2019-02-10T00:37:41.277Z,98685.37
2019-02-10T00:40:13.912Z,98686.25
2019-02-10T00:42:46.983Z,98690.52
2019-02-10T00:45:19.876Z,98694.47
2019-02-10T00:47:51.268Z,98688.77
2019-02-10T00:50:25.337Z,98692.00
2019-02-10T00:52:58.946Z,98687.79
2019-02-10T00:55:33.022Z,98682.62
2019-02-10T00:58:07.041Z,98687.77
2019-02-10T01:00:38.309Z,98679.20
2019-02-10T01:03:12.758Z,98676.89
2019-02-10T01:05:45.937Z,98653.48
2019-02-10T01:08:19.934Z,98680.88
2019-02-10T01:10:51.621Z,98685.78
2019-02-10T01:13:25.278Z,98694.11
2019-02-10T01:15:58.185Z,98693.47
2019-02-10T01:18:31.696Z,98681.83
2019-02-10T01:21:03.771Z,98672.88
2019-02-10T01:23:35.188Z,98667.80
2019-02-10T01:26:08.174Z,98674.63
2019-02-10T01:28:40.651Z,98672.20
2019-02-10T01:31:13.148Z,98661.19
2019-02-10T01:33:44.411Z,98652.03
2019-02-10T01:36:18.196Z,98650.81
2019-02-10T01:38:51.161Z,98642.97
2019-02-10T01:41:23.376Z,98635.47
2019-02-10T01:43:57.253Z,98630.20
2019-02-10T01:46:28.524Z,98618.08
2019-02-10T01:49:02.320Z,98620.44
2019-02-10T01:51:36.301Z,98612.52
2019-02-10T01:54:10.346Z,98609.83
2019-02-10T01:56:46.927Z,98594.52
2019-02-10T01:59:18.779Z,98594.80
2019-02-10T02:01:52.385Z,98589.92
2019-02-10T02:04:24.483Z,98584.26
2019-02-10T02:06:57.805Z,98588.83
2019-02-10T02:09:30.463Z,98589.20
2019-02-10T02:12:04.524Z,98584.12
2019-02-10T02:14:38.473Z,98596.47
2019-02-10T02:17:09.835Z,98587.64
2019-02-10T02:19:41.113Z,98583.26
2019-02-10T02:22:14.527Z,98578.82
2019-02-10T02:24:48.532Z,98582.56
2019-02-10T02:27:22.618Z,98578.82
2019-02-10T02:29:56.564Z,98583.46
2019-02-10T02:32:30.357Z,98578.38
2019-02-10T02:35:01.650Z,98570.50
2019-02-10T02:37:35.713Z,98562.82
2019-02-10T02:40:11.229Z,98556.25
2019-02-10T02:42:43.442Z,98548.66
2019-02-10T02:45:14.774Z,98543.73
2019-02-10T02:47:46.479Z,98542.09
2019-02-10T02:50:18.490Z,98532.78
2019-02-10T02:52:52.505Z,98534.22
2019-02-10T02:55:23.772Z,98530.59
2019-02-10T02:57:59.249Z,98534.16
2019-02-10T03:00:31.683Z,98522.34
2019-02-10T03:03:06.198Z,98525.59
2019-02-10T03:05:39.672Z,98526.41
2019-02-10T03:08:13.530Z,98523.91
2019-02-10T03:10:45.856Z,98529.34
2019-02-10T03:13:18.655Z,98530.52
2019-02-10T03:15:51.768Z,98531.64
2019-02-10T03:18:25.758Z,98533.63
2019-02-10T03:20:59.851Z,98532.76
2019-02-10T03:23:33.783Z,98527.12
2019-02-10T03:26:05.167Z,98525.61
2019-02-10T03:28:36.877Z,98528.20
2019-02-10T03:31:09.729Z,98529.23
2019-02-10T03:33:41.044Z,98525.34
2019-02-10T03:36:14.814Z,98522.71
2019-02-10T03:38:46.673Z,98527.03
2019-02-10T03:41:19.858Z,98522.66
2019-02-10T03:43:53.881Z,98514.36
2019-02-10T03:46:29.400Z,98515.35
2019-02-10T03:49:01.802Z,98507.85
2019-02-10T03:51:36.062Z,98496.41
2019-02-10T03:54:07.786Z,98492.55
2019-02-10T03:56:40.604Z,98494.42
2019-02-10T03:59:13.010Z,98484.17
2019-02-10T04:01:46.933Z,98490.45
2019-02-10T04:04:19.609Z,98483.00
2019-02-10T04:06:50.928Z,98483.52
2019-02-10T04:09:26.412Z,98478.48
2019-02-10T04:11:58.898Z,98481.77
2019-02-10T04:14:30.179Z,98476.72
2019-02-10T04:17:01.460Z,98476.72
2019-02-10T04:19:33.854Z,98470.08
2019-02-10T04:22:09.544Z,98460.02
2019-02-10T04:24:40.987Z,98452.84
2019-02-10T04:27:13.625Z,98442.02
2019-02-10T04:29:47.036Z,98439.45
2019-02-10T04:32:22.567Z,98431.43
2019-02-10T04:34:54.947Z,98423.45
2019-02-10T04:37:30.571Z,98417.80
2019-02-10T04:40:02.990Z,98416.64
2019-02-10T04:42:34.510Z,98421.41
2019-02-10T04:45:06.167Z,98421.45
2019-02-10T04:47:40.445Z,98412.09
2019-02-10T04:50:13.142Z,98413.18
2019-02-10T04:52:48.629Z,98404.42
2019-02-10T04:55:21.109Z,98407.53
2019-02-10T04:57:53.059Z,98394.98
2019-02-10T05:00:26.073Z,98394.45
2019-02-10T05:02:57.465Z,98388.47
2019-02-10T05:05:28.791Z,98389.06
2019-02-10T05:08:02.127Z,98390.81
2019-02-10T05:10:34.199Z,98388.88
2019-02-10T05:13:07.375Z,98394.14
2019-02-10T05:15:40.086Z,98388.65
2019-02-10T05:18:15.721Z,98389.03
2019-02-10T05:20:48.195Z,98382.14
2019-02-10T05:23:19.439Z,98380.33
2019-02-10T05:25:50.760Z,98372.55
2019-02-10T05:28:22.496Z,98368.78
2019-02-10T05:30:54.121Z,98366.54
2019-02-10T05:33:28.307Z,98361.48
2019-02-10T05:36:02.386Z,98353.79
2019-02-10T05:38:35.395Z,98352.80
2019-02-10T05:41:07.496Z,98344.60
2019-02-10T05:43:41.078Z,98341.28
2019-02-10T05:46:14.381Z,98338.48
2019-02-10T05:48:47.420Z,98338.28
2019-02-10T05:51:19.336Z,98338.59
2019-02-10T05:53:53.438Z,98330.40
2019-02-10T05:56:27.348Z,98320.92
2019-02-10T05:59:01.374Z,98318.97
2019-02-10T06:02:05.233Z,98310.37
2019-02-10T06:04:41.853Z,98322.77
2019-02-10T06:07:16.642Z,98315.27
2019-02-10T06:09:50.388Z,98309.52
2019-02-10T06:12:24.412Z,98310.66
2019-02-10T06:14:55.676Z,98303.98
2019-02-10T06:17:29.443Z,98298.41
2019-02-10T06:20:05.238Z,98300.75
2019-02-10T06:22:37.500Z,98288.62
2019-02-10T06:25:12.125Z,98285.38
2019-02-10T06:27:44.473Z,98191.61
2019-02-10T06:30:16.301Z,98278.94
2019-02-10T06:32:47.578Z,98280.98
2019-02-10T06:35:20.638Z,98275.47
2019-02-10T06:37:56.175Z,98269.72
2019-02-10T06:40:29.601Z,98261.36
2019-02-10T06:43:03.664Z,98257.83
2019-02-10T06:45:37.342Z,98260.16
2019-02-10T06:48:08.623Z,98251.81
2019-02-10T06:50:40.896Z,98241.54
2019-02-10T06:53:12.530Z,98241.48
2019-02-10T06:55:44.835Z,98241.41
2019-02-10T06:58:17.678Z,98234.75
2019-02-10T07:00:59.296Z,98240.34
2019-02-10T07:03:55.355Z,98229.55
2019-02-10T07:06:26.847Z,98228.78
2019-02-10T07:09:02.445Z,98216.50
2019-02-10T07:11:34.668Z,98217.64
2019-02-10T07:14:18.443Z,98214.91
2019-02-10T07:17:23.314Z,98221.94
2019-02-10T07:20:52.217Z,98209.61
2019-02-10T07:24:07.224Z,98198.52
2019-02-10T07:26:55.145Z,98203.06
2019-02-10T07:29:58.389Z,98191.34
2019-02-10T07:32:38.874Z,98179.52
2019-02-10T07:35:31.307Z,98181.83
2019-02-10T07:38:17.016Z,98188.21
2019-02-10T07:41:30.767Z,98177.42
2019-02-10T07:44:56.993Z,98171.97
2019-02-10T07:47:55.793Z,98164.91
2019-02-10T07:51:17.877Z,98137.78
2019-02-10T07:54:56.302Z,98132.93
2019-02-10T07:58:02.501Z,98124.61
2019-02-10T08:01:11.548Z,98107.38
2019-02-10T08:04:27.685Z,98100.75
2019-02-10T08:07:38.916Z,98091.23
2019-02-10T08:10:29.411Z,98089.16
2019-02-10T08:13:41.007Z,98078.80
2019-02-10T08:16:39.177Z,98067.75
2019-02-10T08:19:23.215Z,98061.22
2019-02-10T08:22:51.400Z,98035.33
2019-02-10T08:25:53.481Z,98062.17
2019-02-10T08:29:01.854Z,98057.91
2019-02-10T08:32:31.561Z,98060.16
2019-02-10T08:35:44.331Z,98046.98
2019-02-10T08:38:59.217Z,98028.17
2019-02-10T08:42:22.084Z,98026.53
2019-02-10T08:45:37.939Z,98014.21
2019-02-10T08:48:51.594Z,98013.96
2019-02-10T08:52:19.766Z,97997.13
2019-02-10T08:54:53.077Z,97997.92
2019-02-10T08:57:26.908Z,98008.70
2019-02-10T08:59:58.174Z,98001.79
2019-02-10T09:02:31.628Z,97983.41
2019-02-10T09:05:05.853Z,97983.77
2019-02-10T09:07:40.830Z,97981.52
2019-02-10T09:10:13.413Z,97973.73
2019-02-10T09:12:47.138Z,97968.63
2019-02-10T09:15:18.923Z,97966.30
2019-02-10T09:17:53.766Z,97953.47
2019-02-10T09:20:27.669Z,97963.66
2019-02-10T09:22:59.184Z,97953.88
2019-02-10T09:25:33.386Z,97952.22
2019-02-10T09:28:07.016Z,97946.28
2019-02-10T09:30:42.037Z,97946.67
2019-02-10T09:33:14.402Z,97935.59
2019-02-10T09:35:47.407Z,97924.59
2019-02-10T09:38:19.383Z,97920.41
2019-02-10T09:40:52.448Z,97913.06
2019-02-10T09:43:26.467Z,97902.17
2019-02-10T09:46:02.115Z,97894.98
2019-02-10T09:48:33.400Z,97892.13
2019-02-10T09:51:05.430Z,97891.67
2019-02-10T09:53:38.317Z,97885.20
2019-02-10T09:56:10.690Z,97880.86
2019-02-10T09:58:44.505Z,97868.45
2019-02-10T10:01:16.546Z,97863.70
2019-02-10T10:03:50.107Z,97846.20
2019-02-10T10:06:22.764Z,97847.98
2019-02-10T10:08:55.525Z,97836.17
2019-02-10T10:11:28.506Z,97839.38
2019-02-10T10:14:04.228Z,97827.80
2019-02-10T10:16:36.560Z,97826.85
2019-02-10T10:19:12.525Z,97820.45
2019-02-10T10:21:44.542Z,97684.44
2019-02-10T10:24:17.648Z,97805.03
2019-02-10T10:26:51.510Z,97800.48
2019-02-10T10:29:24.543Z,97782.84
2019-02-10T10:31:55.829Z,97767.98
2019-02-10T10:34:29.753Z,97754.98
2019-02-10T10:37:05.352Z,97754.52
2019-02-10T10:39:39.563Z,97749.09
2019-02-10T10:42:13.743Z,97738.20
2019-02-10T10:44:44.997Z,97739.27
2019-02-10T10:47:18.829Z,97731.06
2019-02-10T10:49:51.717Z,97720.45
2019-02-10T10:52:24.730Z,97697.59
2019-02-10T10:54:56.762Z,97695.23
2019-02-10T10:57:29.745Z,97701.44
2019-02-10T11:00:02.926Z,97722.47
2019-02-10T11:02:34.859Z,97710.02
2019-02-10T11:05:09.417Z,97700.16
2019-02-10T11:07:41.239Z,97698.06
2019-02-10T11:10:13.338Z,97697.05
2019-02-10T11:12:44.729Z,97701.84
2019-02-10T11:15:18.141Z,97672.16
2019-02-10T11:17:49.401Z,97668.89
2019-02-10T11:20:22.335Z,97659.22
2019-02-10T11:22:53.972Z,97651.73
2019-02-10T11:25:25.750Z,97644.80
2019-02-10T11:27:57.046Z,97648.09
2019-02-10T11:30:30.885Z,97630.33
2019-02-10T11:33:03.820Z,97626.14
2019-02-10T11:35:38.036Z,97612.58
2019-02-10T11:38:11.920Z,97616.80
2019-02-10T11:40:44.933Z,97610.86
2019-02-10T11:43:16.458Z,97604.39
2019-02-10T11:45:49.805Z,97590.47
2019-02-10T11:48:21.081Z,97595.64
2019-02-10T11:50:55.046Z,97590.72
2019-02-10T11:53:28.960Z,97602.97
2019-02-10T11:56:01.889Z,97584.58
2019-02-10T11:58:35.138Z,97565.05
2019-02-10T12:01:06.414Z,97555.19
2019-02-10T12:03:37.733Z,97541.89
2019-02-10T12:06:12.584Z,97533.52
2019-02-10T12:08:44.961Z,97516.48
2019-02-10T12:11:16.244Z,97523.37
2019-02-10T12:13:47.891Z,97530.27
2019-02-10T12:16:20.962Z,97525.20
2019-02-10T12:18:54.309Z,97525.20
2019-02-10T12:21:27.128Z,97522.85
2019-02-10T12:23:58.671Z,97515.09
2019-02-10T12:26:29.937Z,97513.03
2019-02-10T12:29:03.070Z,97502.97
2019-02-10T12:31:37.605Z,97500.91
2019-02-10T12:34:11.133Z,97505.26
2019-02-10T12:36:45.041Z,97489.25
2019-02-10T12:39:18.211Z,97482.44
2019-02-10T12:41:49.532Z,97481.14
2019-02-10T12:44:20.799Z,97482.31
2019-02-10T12:46:54.210Z,97482.91
2019-02-10T12:49:27.069Z,97471.22
2019-02-10T12:51:58.355Z,97468.31
2019-02-10T12:54:31.155Z,97473.14
2019-02-10T12:57:03.220Z,97467.41
2019-02-10T12:59:38.787Z,97465.05
2019-02-10T13:02:10.683Z,97461.09
2019-02-10T13:04:41.944Z,97456.34
2019-02-10T13:07:15.281Z,97456.36
2019-02-10T13:09:46.662Z,97455.73
2019-02-10T13:12:20.327Z,97442.37
2019-02-10T13:14:55.035Z,97439.06
2019-02-10T13:17:29.789Z,97437.78
2019-02-10T13:20:04.009Z,97438.83
2019-02-10T13:22:35.346Z,97444.16
2019-02-10T13:25:11.410Z,97442.53
2019-02-10T13:27:46.119Z,97443.24
2019-02-10T13:30:18.489Z,97443.46
2019-02-10T13:32:50.657Z,97440.27
2019-02-10T13:35:24.503Z,97437.00
2019-02-10T13:37:58.394Z,97425.03
2019-02-10T13:40:31.402Z,97427.72
2019-02-10T13:43:05.410Z,97420.31
2019-02-10T13:45:39.505Z,97418.42
2019-02-10T13:48:10.779Z,97420.80
2019-02-10T13:50:42.080Z,97401.80
2019-02-10T13:53:15.234Z,97389.59
2019-02-10T13:55:48.548Z,97389.88
2019-02-10T13:58:24.078Z,97392.38
2019-02-10T14:00:55.474Z,97403.81
2019-02-10T14:03:29.471Z,97403.98
2019-02-10T14:06:01.121Z,97394.20
2019-02-10T14:08:34.556Z,97383.82
2019-02-10T14:11:08.582Z,97381.37
2019-02-10T14:13:40.605Z,97371.29
2019-02-10T14:16:13.642Z,97362.88
2019-02-10T14:18:46.595Z,97350.88
2019-02-10T14:21:20.498Z,97339.21
2019-02-10T14:23:51.963Z,97333.91
2019-02-10T14:26:23.263Z,97327.65
2019-02-10T14:28:56.689Z,97337.50
2019-02-10T14:31:30.594Z,97320.16
2019-02-10T14:34:04.561Z,97331.84
2019-02-10T14:36:37.719Z,97332.14
2019-02-10T14:39:11.609Z,97330.11
2019-02-10T14:41:45.699Z,97315.17
2019-02-10T14:44:18.713Z,97292.09
2019-02-10T14:46:52.666Z,97283.78
2019-02-10T14:49:28.321Z,97283.16
2019-02-10T14:52:00.766Z,97282.28
2019-02-10T14:54:35.585Z,97283.35
2019-02-10T14:57:07.919Z,97293.11
2019-02-10T14:59:41.565Z,97287.97
2019-02-10T15:02:12.896Z,97274.91
2019-02-10T15:04:44.832Z,97264.28
2019-02-10T15:07:25.307Z,97265.70
2019-02-10T15:09:50.833Z,97254.70
2019-02-10T15:12:22.164Z,97248.84
2019-02-10T15:14:55.870Z,97273.63
2019-02-10T15:17:27.163Z,97248.80
2019-02-10T15:20:00.816Z,97232.00
2019-02-10T15:22:33.801Z,97233.45
2019-02-10T15:25:07.244Z,97235.80
2019-02-10T15:27:38.871Z,97241.02
2019-02-10T15:30:12.562Z,97237.70
2019-02-10T15:32:45.847Z,97228.16
2019-02-10T15:35:19.879Z,97234.44
2019-02-10T15:37:52.853Z,97223.01
2019-02-10T15:40:24.913Z,97220.08
2019-02-10T15:42:58.831Z,97223.75
2019-02-10T15:45:32.016Z,97217.56
2019-02-10T15:48:03.262Z,97209.20
2019-02-10T15:50:37.027Z,97226.55
2019-02-10T15:53:10.908Z,97229.66
2019-02-10T15:55:42.181Z,97215.30
2019-02-10T15:58:14.911Z,97214.16
2019-02-10T16:00:48.052Z,97210.38
2019-02-10T16:03:21.900Z,97213.93
2019-02-10T16:05:53.987Z,97194.47
2019-02-10T16:08:27.043Z,97186.19
2019-02-10T16:10:59.178Z,97189.21
2019-02-10T16:13:32.115Z,97188.08
2019-02-10T16:16:06.118Z,97195.13
2019-02-10T16:18:39.006Z,97184.64
2019-02-10T16:21:11.068Z,97182.64
2019-02-10T16:23:42.365Z,97190.46
2019-02-10T16:26:15.001Z,97178.98
2019-02-10T16:28:46.288Z,97168.62
2019-02-10T16:31:20.282Z,97157.23
2019-02-10T16:33:53.139Z,97152.52
2019-02-10T16:36:27.164Z,97150.55
2019-02-10T16:39:01.531Z,97135.16
2019-02-10T16:41:35.186Z,97137.75
2019-02-10T16:44:09.263Z,97129.77
2019-02-10T16:46:41.546Z,97116.72
2019-02-10T16:49:13.164Z,97115.06
2019-02-10T16:51:45.438Z,97112.63
2019-02-10T16:54:18.278Z,97114.70
2019-02-10T16:56:54.183Z,97106.81
2019-02-10T16:59:25.900Z,97101.42
2019-02-10T17:01:59.396Z,97093.27
2019-02-10T17:04:33.313Z,97090.63
2019-02-10T17:07:09.126Z,97086.85
2019-02-10T17:09:41.683Z,97076.06
2019-02-10T17:12:14.410Z,97080.42
2019-02-10T17:14:45.756Z,97098.04
2019-02-10T17:17:17.118Z,97090.14
2019-02-10T17:19:50.439Z,97088.24
2019-02-10T17:22:24.003Z,97085.61
2019-02-10T17:24:57.418Z,97082.16
2019-02-10T17:27:30.529Z,97080.20
2019-02-10T17:30:02.474Z,97082.33
2019-02-10T17:32:36.563Z,97072.82
2019-02-10T17:35:10.848Z,97058.34
2019-02-10T17:37:42.227Z,97048.28
2019-02-10T17:40:18.496Z,97063.00
2019-02-10T17:42:50.659Z,97065.59
2019-02-10T17:45:24.496Z,97061.64
2019-02-10T17:47:55.946Z,97058.16
2019-02-10T17:50:27.285Z,97064.44
2019-02-10T17:53:00.613Z,97067.00
2019-02-10T17:55:34.604Z,97072.55
2019-02-10T17:58:08.661Z,97065.98
2019-02-10T18:00:45.553Z,97055.50
2019-02-10T18:03:19.752Z,97065.61
2019-02-10T18:05:53.775Z,97059.59
2019-02-10T18:08:26.617Z,97071.27
2019-02-10T18:11:02.349Z,97051.28
2019-02-10T18:13:34.614Z,97043.21
2019-02-10T18:16:31.933Z,97037.65
2019-02-10T18:19:16.915Z,97029.24
2019-02-10T18:22:06.478Z,97038.20
2019-02-10T18:25:09.136Z,97042.88
2019-02-10T18:28:01.215Z,97041.47
2019-02-10T18:30:42.804Z,97030.14
2019-02-10T18:33:37.740Z,97050.85
2019-02-10T18:36:36.100Z,97045.30
2019-02-10T18:39:15.519Z,97038.84
2019-02-10T18:42:06.598Z,97060.67
2019-02-10T18:45:07.316Z,97047.51
2019-02-10T18:48:01.091Z,97047.58
2019-02-10T18:50:54.119Z,97048.90
2019-02-10T18:53:38.230Z,97028.40
2019-02-10T18:56:19.625Z,97032.81
2019-02-10T18:59:00.348Z,97022.08
2019-02-10T19:01:40.583Z,97028.40
2019-02-10T19:04:30.600Z,97053.96
2019-02-10T19:07:32.839Z,97040.50
2019-02-10T19:10:17.476Z,97035.83
2019-02-10T19:13:16.021Z,97037.61
2019-02-10T19:16:05.644Z,97027.34
2019-02-10T19:18:51.529Z,97044.03
2019-02-10T19:21:46.435Z,97030.09
2019-02-10T19:24:36.945Z,97031.67
2019-02-10T19:27:21.795Z,97058.34
2019-02-10T19:30:15.976Z,97045.51
2019-02-10T19:33:08.061Z,97036.05
2019-02-10T19:36:10.044Z,97041.05
2019-02-10T19:38:53.393Z,97046.82
2019-02-10T19:41:39.769Z,97037.36
2019-02-10T19:44:29.267Z,97045.30
2019-02-10T19:47:20.982Z,97047.46
2019-02-10T19:50:23.571Z,97067.77
2019-02-10T19:53:20.331Z,97041.64
2019-02-10T19:56:15.950Z,97046.62
2019-02-10T19:59:01.115Z,97048.78
2019-02-10T20:02:06.159Z,97020.44
2019-02-10T20:04:52.549Z,96998.80
2019-02-10T20:07:43.372Z,97003.36
2019-02-10T20:10:42.068Z,97030.34
2019-02-10T20:13:39.316Z,97031.70
2019-02-10T20:16:22.835Z,97055.92
2019-02-10T20:19:15.885Z,97056.77
2019-02-10T20:22:11.349Z,97058.29
2019-02-10T20:25:00.425Z,97075.45
2019-02-10T20:27:50.760Z,97070.40
2019-02-10T20:30:51.239Z,97106.80
2019-02-10T20:33:34.931Z,97100.27
2019-02-10T20:36:33.406Z,97148.09
2019-02-10T20:39:31.911Z,97143.55
2019-02-10T20:42:41.552Z,97137.09
2019-02-10T20:45:30.943Z,97163.44
2019-02-10T20:48:24.072Z,97175.75
2019-02-10T20:51:33.393Z,97199.75
2019-02-10T20:54:24.131Z,97215.31
2019-02-10T20:57:19.161Z,97444.22
2019-02-10T21:00:08.981Z,97481.94
2019-02-10T21:02:46.717Z,97495.73
2019-02-10T21:05:42.014Z,97490.51
2019-02-10T21:08:34.248Z,97501.87
2019-02-10T21:11:25.574Z,97523.47
2019-02-10T21:14:14.515Z,97521.07
2019-02-10T21:17:07.881Z,97529.03
2019-02-10T21:19:58.130Z,97538.66
2019-02-10T21:22:51.223Z,97542.73
2019-02-10T21:25:52.591Z,97538.56
2019-02-10T21:28:34.746Z,97548.14
2019-02-10T21:31:19.866Z,97539.41
2019-02-10T21:34:28.494Z,97532.70
2019-02-10T21:37:13.370Z,97540.45
2019-02-10T21:40:16.646Z,97541.35
2019-02-10T21:43:02.896Z,97540.84
2019-02-10T21:45:53.286Z,97528.41
2019-02-10T21:48:32.606Z,97517.63
2019-02-10T21:51:05.653Z,97510.07
2019-02-10T21:53:39.708Z,97508.59
2019-02-10T21:56:12.651Z,97498.67
2019-02-10T21:58:44.135Z,97495.79
2019-02-10T22:01:17.704Z,97479.51
2019-02-10T22:03:51.835Z,97472.70
2019-02-10T22:06:24.794Z,97475.50
2019-02-10T22:09:00.398Z,97474.28
2019-02-10T22:11:32.694Z,97481.97
2019-02-10T22:14:04.052Z,97473.56
2019-02-10T22:16:37.885Z,97476.28
2019-02-10T22:19:11.757Z,97471.31
2019-02-10T22:21:46.177Z,97453.19
2019-02-10T22:24:18.926Z,97455.02
2019-02-10T22:26:51.811Z,97446.08
2019-02-10T22:29:23.707Z,97460.59
2019-02-10T22:31:54.967Z,97455.58
2019-02-10T22:34:27.753Z,97438.60
2019-02-10T22:37:01.670Z,97438.60
2019-02-10T22:39:33.031Z,97443.16
2019-02-10T22:42:07.296Z,97432.66
2019-02-10T22:44:39.814Z,97423.55
2019-02-10T22:47:15.334Z,97442.10
2019-02-10T22:49:47.835Z,97423.89
2019-02-10T22:52:19.100Z,97423.89
2019-02-10T22:54:51.154Z,97421.28
2019-02-10T22:57:22.797Z,97435.80
2019-02-10T22:59:54.048Z,97431.84
2019-02-10T23:02:27.881Z,97434.46
2019-02-10T23:05:01.898Z,97429.77
2019-02-10T23:07:33.207Z,97435.80
2019-02-10T23:10:05.932Z,97439.73
2019-02-10T23:12:37.882Z,97439.73
2019-02-10T23:15:11.715Z,97433.64
2019-02-10T23:17:44.170Z,97441.22
2019-02-10T23:20:16.230Z,97440.44
2019-02-10T23:22:49.402Z,97434.86
2019-02-10T23:25:20.844Z,97442.56
2019-02-10T23:27:54.828Z,97438.53
2019-02-10T23:30:28.639Z,97437.63
2019-02-10T23:32:59.878Z,97445.02
2019-02-10T23:35:34.595Z,97462.50
2019-02-10T23:38:06.990Z,97462.92
2019-02-10T23:40:41.335Z,97466.12
2019-02-10T23:43:15.607Z,97458.45
2019-02-10T23:45:49.197Z,97460.61
2019-02-10T23:48:20.435Z,97460.48
2019-02-10T23:50:54.959Z,97460.04
2019-02-10T23:53:27.978Z,97460.14
2019-02-10T23:56:02.787Z,97464.39
2019-02-10T23:58:35.138Z,97458.39
